createdAt,value
2023-01-18T00:04:27.003Z,5.64
2023-01-18T00:09:28.879Z,5.63
2023-01-18T00:14:30.819Z,5.61
2023-01-18T00:19:34.156Z,5.61
2023-01-18T00:24:36.144Z,5.62
2023-01-18T00:29:39.154Z,5.63
2023-01-18T00:34:41.865Z,5.64
2023-01-18T00:39:43.493Z,5.63
2023-01-18T00:44:45.604Z,5.64
2023-01-18T00:49:47.587Z,5.63
2023-01-18T00:54:49.497Z,5.62
2023-01-18T00:59:51.399Z,5.62
2023-01-18T01:05:12.198Z,5.63
2023-01-18T01:10:14.216Z,5.60
2023-01-18T01:15:34.626Z,5.59
2023-01-18T01:20:55.012Z,5.59
2023-01-18T01:26:05.884Z,5.57
2023-01-18T01:31:10.803Z,5.58
2023-01-18T01:36:15.396Z,5.59
2023-01-18T01:41:23.952Z,5.57
2023-01-18T01:46:33.958Z,5.56
2023-01-18T01:51:39.894Z,5.54
2023-01-18T01:56:43.765Z,5.52
2023-01-18T02:01:46.658Z,5.52
2023-01-18T02:06:48.698Z,5.53
2023-01-18T02:11:55.536Z,5.52
2023-01-18T02:17:12.285Z,5.51
2023-01-18T02:22:47.983Z,5.49
2023-01-18T02:28:07.179Z,5.45
2023-01-18T02:33:15.710Z,5.43
2023-01-18T02:38:37.670Z,5.39
2023-01-18T02:44:00.830Z,5.35
2023-01-18T02:49:22.838Z,5.27
2023-01-18T02:54:24.776Z,5.26
2023-01-18T02:59:33.299Z,5.26
2023-01-18T03:04:54.484Z,5.24
2023-01-18T03:09:58.767Z,5.20
2023-01-18T03:15:30.443Z,5.16
2023-01-18T03:20:38.174Z,5.08
2023-01-18T03:25:45.420Z,4.99
2023-01-18T03:31:08.892Z,4.96
2023-01-18T03:36:42.215Z,4.88
2023-01-18T03:41:49.368Z,4.81
2023-01-18T03:46:51.799Z,4.73
2023-01-18T03:52:15.543Z,4.73
2023-01-18T03:57:25.909Z,4.74
2023-01-18T04:02:28.692Z,4.67
2023-01-18T04:07:33.760Z,4.67
2023-01-18T04:12:35.668Z,4.64
2023-01-18T04:17:37.501Z,4.66
2023-01-18T04:22:39.686Z,4.64
2023-01-18T04:27:41.576Z,4.67
2023-01-18T04:32:46.289Z,4.66
2023-01-18T04:37:53.059Z,4.60
2023-01-18T04:42:55.221Z,4.59
2023-01-18T04:47:57.250Z,4.65
2023-01-18T04:52:59.426Z,4.65
2023-01-18T04:58:01.366Z,4.65
2023-01-18T05:03:03.161Z,4.67
2023-01-18T05:08:05.079Z,4.71
2023-01-18T05:13:07.374Z,4.63
2023-01-18T05:18:09.123Z,4.50
2023-01-18T05:23:11.193Z,4.42
2023-01-18T05:28:12.861Z,4.34
2023-01-18T05:33:14.558Z,4.29
2023-01-18T05:38:16.638Z,4.26
2023-01-18T05:43:19.884Z,4.24
2023-01-18T05:48:22.013Z,4.25
2023-01-18T05:53:24.348Z,4.26
2023-01-18T05:58:27.389Z,4.24
2023-01-18T06:03:29.166Z,4.27
2023-01-18T06:08:30.874Z,4.26
2023-01-18T06:13:32.996Z,4.29
2023-01-18T06:18:34.949Z,4.34
2023-01-18T06:23:36.603Z,4.38
2023-01-18T06:28:38.243Z,4.33
2023-01-18T06:33:40.177Z,4.35
2023-01-18T06:38:43.859Z,4.32
2023-01-18T06:43:47.476Z,4.35
2023-01-18T06:48:53.999Z,4.38
2023-01-18T06:54:05.526Z,4.43
2023-01-18T06:59:11.972Z,4.44
2023-01-18T07:04:14.265Z,4.47
2023-01-18T07:09:18.441Z,4.49
2023-01-18T07:14:21.790Z,4.51
2023-01-18T07:19:30.878Z,4.53
2023-01-18T07:24:36.346Z,4.50
2023-01-18T07:29:39.752Z,4.51
2023-01-18T07:34:46.642Z,4.50
2023-01-18T07:39:53.208Z,4.57
2023-01-18T07:45:03.661Z,4.62
2023-01-18T07:50:07.065Z,4.69
2023-01-18T07:55:17.124Z,4.73
2023-01-18T08:00:22.966Z,4.80
2023-01-18T08:05:32.000Z,4.88
2023-01-18T08:10:38.470Z,4.94
2023-01-18T08:15:46.231Z,4.97
2023-01-18T08:21:16.893Z,5.00
2023-01-18T08:26:18.869Z,5.01
2023-01-18T08:31:22.021Z,5.00
2023-01-18T08:36:25.796Z,5.06
2023-01-18T08:41:31.160Z,5.10
2023-01-18T08:46:32.977Z,5.09
2023-01-18T08:51:34.852Z,5.07
2023-01-18T08:56:36.710Z,5.12
2023-01-18T09:01:38.629Z,5.11
2023-01-18T09:06:40.574Z,5.15
2023-01-18T09:11:42.317Z,5.18
2023-01-18T09:16:44.528Z,5.20
2023-01-18T09:21:46.760Z,5.24
2023-01-18T09:26:52.396Z,5.27
2023-01-18T09:31:55.958Z,5.25
2023-01-18T09:36:58.266Z,5.26
2023-01-18T09:42:02.342Z,5.23
2023-01-18T09:47:24.181Z,5.26
2023-01-18T09:52:51.584Z,5.24
2023-01-18T09:57:56.578Z,5.25
2023-01-18T10:03:02.723Z,5.27
2023-01-18T10:08:13.536Z,5.30
2023-01-18T10:13:24.365Z,5.35
2023-01-18T10:18:26.224Z,5.40
2023-01-18T10:23:40.746Z,5.45
2023-01-18T10:28:55.503Z,5.44
2023-01-18T10:34:01.172Z,5.45
2023-01-18T10:39:13.410Z,5.39
2023-01-18T10:44:15.008Z,5.37
2023-01-18T10:49:40.930Z,5.39
2023-01-18T10:54:50.067Z,5.36
2023-01-18T10:59:53.760Z,5.39
2023-01-18T11:05:04.434Z,5.42
2023-01-18T11:10:09.694Z,5.42
2023-01-18T11:15:14.585Z,5.43
2023-01-18T11:20:23.391Z,5.39
2023-01-18T11:25:40.814Z,5.31
2023-01-18T11:31:00.829Z,5.23
2023-01-18T11:36:03.517Z,5.24
2023-01-18T11:41:20.100Z,5.24
2023-01-18T11:46:35.065Z,5.16
2023-01-18T11:51:45.902Z,5.08
2023-01-18T11:56:55.859Z,5.03
2023-01-18T12:02:35.453Z,4.89
2023-01-18T12:08:06.860Z,4.74
2023-01-18T12:13:33.848Z,4.66
2023-01-18T12:19:18.106Z,4.65
2023-01-18T12:24:34.006Z,4.68
2023-01-18T12:29:50.590Z,4.63
2023-01-18T12:35:23.814Z,4.53
2023-01-18T12:40:48.641Z,4.48
2023-01-18T12:46:19.445Z,4.43
2023-01-18T12:51:24.705Z,4.40
2023-01-18T12:56:33.177Z,4.30
2023-01-18T13:01:42.903Z,4.26
2023-01-18T13:06:47.276Z,4.27
2023-01-18T13:11:49.776Z,4.27
2023-01-18T13:17:04.308Z,4.30
2023-01-18T13:22:48.000Z,4.27
2023-01-18T13:28:00.688Z,4.24
2023-01-18T13:33:13.757Z,4.24
2023-01-18T13:38:27.500Z,4.16
2023-01-18T13:43:34.299Z,4.05
2023-01-18T13:48:45.409Z,4.03
2023-01-18T13:53:49.799Z,3.97
2023-01-18T13:58:55.028Z,3.97
2023-01-18T14:03:58.264Z,3.97
2023-01-18T14:09:18.332Z,3.95
2023-01-18T14:14:20.407Z,3.99
2023-01-18T14:19:23.056Z,4.00
2023-01-18T14:24:28.863Z,3.94
2023-01-18T14:29:44.453Z,3.97
2023-01-18T14:34:46.345Z,4.02
2023-01-18T14:39:48.191Z,3.96
2023-01-18T14:44:58.164Z,3.89
2023-01-18T14:50:04.803Z,3.91
2023-01-18T14:55:22.305Z,3.89
2023-01-18T15:00:24.927Z,3.86
2023-01-18T15:05:29.779Z,3.80
2023-01-18T15:10:32.004Z,3.84
2023-01-18T15:15:40.678Z,3.84
2023-01-18T15:21:02.337Z,3.82
2023-01-18T15:26:04.223Z,3.76
2023-01-18T15:31:13.559Z,3.79
2023-01-18T15:36:16.963Z,3.82
2023-01-18T15:41:18.659Z,3.86
2023-01-18T15:46:20.608Z,3.91
2023-01-18T15:51:42.886Z,3.90
2023-01-18T15:56:46.228Z,3.91
2023-01-18T16:02:13.614Z,3.94
2023-01-18T16:07:37.531Z,3.94
2023-01-18T16:12:40.414Z,3.97
2023-01-18T16:17:44.870Z,4.01
2023-01-18T16:22:48.313Z,4.00
2023-01-18T16:27:53.027Z,3.91
2023-01-18T16:32:54.734Z,3.88
2023-01-18T16:37:57.934Z,3.91
2023-01-18T16:43:07.573Z,3.96
2023-01-18T16:48:16.981Z,4.00
2023-01-18T16:53:18.831Z,4.05
2023-01-18T16:58:21.385Z,4.05
2023-01-18T17:03:23.753Z,4.07
2023-01-18T17:08:25.487Z,4.08
2023-01-18T17:13:27.359Z,4.12
2023-01-18T17:18:29.043Z,4.14
2023-01-18T17:23:30.716Z,4.15
2023-01-18T17:28:32.553Z,4.10
2023-01-18T17:33:38.505Z,4.11
2023-01-18T17:38:40.387Z,4.11
2023-01-18T17:43:42.112Z,4.11
2023-01-18T17:48:44.489Z,4.17
2023-01-18T17:53:47.943Z,4.20
2023-01-18T17:58:54.355Z,4.27
2023-01-18T18:09:12.748Z,4.32
2023-01-18T18:14:14.943Z,4.29
2023-01-18T18:19:16.898Z,4.22
2023-01-18T18:24:18.896Z,4.18
2023-01-18T18:29:20.915Z,4.16
2023-01-18T18:34:22.759Z,4.17
2023-01-18T18:39:24.775Z,4.17
2023-01-18T18:44:27.721Z,4.18
2023-01-18T18:49:29.853Z,4.17
2023-01-18T18:54:31.698Z,4.11
2023-01-18T18:59:33.347Z,4.06
2023-01-18T19:04:35.112Z,4.02
2023-01-18T19:09:37.087Z,4.04
2023-01-18T19:14:39.219Z,4.06
2023-01-18T19:19:41.097Z,4.08
2023-01-18T19:24:43.341Z,4.11
2023-01-18T19:29:45.203Z,4.11
2023-01-18T19:34:47.136Z,4.13
2023-01-18T19:39:49.076Z,4.09
2023-01-18T19:44:53.827Z,4.09
2023-01-18T19:49:57.574Z,4.12
2023-01-18T19:54:59.473Z,4.14
2023-01-18T20:00:07.124Z,4.11
2023-01-18T20:05:13.649Z,4.10
2023-01-18T20:10:20.173Z,4.09
2023-01-18T20:15:23.113Z,4.06
2023-01-18T20:20:32.608Z,4.11
2023-01-18T20:25:34.677Z,4.16
2023-01-18T20:30:36.780Z,4.17
2023-01-18T20:35:39.184Z,4.22
2023-01-18T20:40:41.146Z,4.20
2023-01-18T20:45:42.969Z,4.18
2023-01-18T20:50:44.730Z,4.20
2023-01-18T20:55:46.671Z,4.23
2023-01-18T21:00:49.268Z,4.27
2023-01-18T21:05:53.459Z,4.25
2023-01-18T21:10:55.263Z,4.20
2023-01-18T21:15:58.791Z,4.18
2023-01-18T21:21:01.040Z,4.17
2023-01-18T21:26:02.899Z,4.20
2023-01-18T21:31:05.554Z,4.24
2023-01-18T21:36:11.924Z,4.25
2023-01-18T21:41:32.641Z,4.26
2023-01-18T21:46:34.438Z,4.26
2023-01-18T21:51:54.813Z,4.26
2023-01-18T21:56:56.683Z,4.18
2023-01-18T22:01:58.596Z,4.12
2023-01-18T22:07:01.230Z,4.09
2023-01-18T22:12:02.982Z,4.06
2023-01-18T22:17:05.020Z,4.05
2023-01-18T22:22:06.937Z,4.02
2023-01-18T22:27:09.056Z,3.99
2023-01-18T22:32:10.802Z,3.97
2023-01-18T22:37:12.668Z,3.97
2023-01-18T22:42:15.585Z,3.94
2023-01-18T22:47:17.412Z,3.90
2023-01-18T22:52:19.489Z,3.90
2023-01-18T22:57:23.276Z,3.91
2023-01-18T23:02:25.109Z,3.93
2023-01-18T23:07:26.911Z,3.89
2023-01-18T23:12:28.733Z,3.82
2023-01-18T23:17:39.675Z,3.79
2023-01-18T23:22:41.590Z,3.75
2023-01-18T23:27:43.912Z,3.65
2023-01-18T23:32:45.883Z,3.56
2023-01-18T23:37:47.793Z,3.50
2023-01-18T23:43:11.846Z,3.41
2023-01-18T23:48:38.391Z,3.36
2023-01-18T23:53:58.761Z,3.36
2023-01-18T23:59:00.568Z,3.35
